Fergana, Uzbekistan
Current Conditions -  °F | °C
As of 11:00 PM on Monday 20 Oct 2014 (Local Time) from UTFF Reporting Station
Clear Clear  
Wind Chill: 59°   Ceiling: Unl
Heat Index: 59°   Visibility: 6mi
Dew Point: 43°   Wind: 9mph
Humidity: 55%   Direction: 220°SW
Pressure: 30.06"   Gusts: NA
Location:  40.37°N, 71.75°E
Report Text: UTFF 201800Z 22004MPS 9999 NSC 15/06 Q1018 R18/CLRD70
Loading
Personal Weather Stations






























Interactive Weather Map
Tropical Storm Tracking
New forecast layout! Learn more

10-Day Weather Forecast

Advertisements
Track Severe Weather on mobile